Easton, Pennsylvania
Current Conditions -  °F | °C
As of 3:51 AM on Saturday 22 Nov 2014 (Local Time) from KABE Reporting Station
Clear Clear  
Wind Chill: 19°   Ceiling: Unl
Heat Index: 19°   Visibility: 10mi
Dew Point: 10°   Wind: 3mph
Humidity: 68%   Direction: 240°WSW
Pressure: 30.48"   Gusts: NA
Location:  40.69°N, 75.21°W
Report Text: KABE 220851Z 24003KT 10SM CLR M07/M12 A3048 RMK AO2 SLP326 T10721122 58005
Loading
Personal Weather Stations






























Interactive Weather Map New forecast layout! Learn more

10-Day Weather Forecast

Advertisements
Track Severe Weather on mobile